createdAt,value
2024-05-09T00:00:46.258Z,11.18
2024-05-09T00:03:13.573Z,12.01
2024-05-09T00:05:43.967Z,10.52
2024-05-09T00:08:12.228Z,10.69
2024-05-09T00:10:44.410Z,10.96
2024-05-09T00:13:13.854Z,11.39
2024-05-09T00:15:40.983Z,10.46
2024-05-09T00:18:10.619Z,10.09
2024-05-09T00:20:40.554Z,9.31
2024-05-09T00:23:10.534Z,10.36
2024-05-09T00:25:38.024Z,11.21
2024-05-09T00:28:05.543Z,9.61
2024-05-09T00:30:36.842Z,9.86
2024-05-09T00:33:06.222Z,9.13
2024-05-09T00:35:34.471Z,10.91
2024-05-09T00:38:07.166Z,9.42
2024-05-09T00:40:41.025Z,9.19
2024-05-09T00:43:14.203Z,9.01
2024-05-09T00:45:42.198Z,10.50
2024-05-09T00:48:11.270Z,10.64
2024-05-09T00:50:47.665Z,12.35
2024-05-09T00:53:18.809Z,13.05
2024-05-09T00:55:48.547Z,13.44
2024-05-09T00:58:20.560Z,12.63
2024-05-09T01:00:51.339Z,12.21
2024-05-09T01:03:21.463Z,11.16
2024-05-09T01:05:51.464Z,10.95
2024-05-09T01:08:21.067Z,12.03
2024-05-09T01:10:50.799Z,13.27
2024-05-09T01:13:20.077Z,12.96
2024-05-09T01:15:50.029Z,12.29
2024-05-09T01:18:19.982Z,12.83
2024-05-09T01:20:47.206Z,11.99
2024-05-09T01:23:16.911Z,13.43
2024-05-09T01:25:44.539Z,11.03
2024-05-09T01:28:11.901Z,11.48
2024-05-09T01:30:41.028Z,12.53
2024-05-09T01:33:13.496Z,11.49
2024-05-09T01:35:43.580Z,11.86
2024-05-09T01:38:17.190Z,10.43
2024-05-09T01:40:48.084Z,12.01
2024-05-09T01:43:17.667Z,12.09
2024-05-09T01:45:47.042Z,10.97
2024-05-09T01:48:14.264Z,10.73
2024-05-09T01:50:44.367Z,11.47
2024-05-09T01:53:13.514Z,10.37
2024-05-09T01:55:41.218Z,10.14
2024-05-09T01:58:10.743Z,10.29
2024-05-09T02:00:42.309Z,10.91
2024-05-09T02:03:14.410Z,11.67
2024-05-09T02:05:47.737Z,10.67
2024-05-09T02:08:22.064Z,13.01
2024-05-09T02:10:52.351Z,12.87
2024-05-09T02:13:19.459Z,10.86
2024-05-09T02:15:52.269Z,12.62
2024-05-09T02:18:20.788Z,10.47
2024-05-09T02:20:50.370Z,11.85
2024-05-09T02:23:22.733Z,12.38
2024-05-09T02:25:52.197Z,10.82
2024-05-09T02:28:20.594Z,11.90
2024-05-09T02:30:49.707Z,11.09
2024-05-09T02:33:16.909Z,12.11
2024-05-09T02:35:46.133Z,10.58
2024-05-09T02:38:16.039Z,11.60
2024-05-09T02:40:43.206Z,11.41
2024-05-09T02:43:13.243Z,10.65
2024-05-09T02:45:42.849Z,11.43
2024-05-09T02:48:13.625Z,11.63
2024-05-09T02:50:43.864Z,10.05
2024-05-09T02:53:14.792Z,11.64
2024-05-09T02:55:47.689Z,10.53
2024-05-09T02:58:17.733Z,11.48
2024-05-09T03:00:49.633Z,10.14
2024-05-09T03:03:16.923Z,10.68
2024-05-09T03:05:48.125Z,10.29
2024-05-09T03:08:17.620Z,11.75
2024-05-09T03:10:46.895Z,11.19
2024-05-09T03:13:15.387Z,11.24
2024-05-09T03:15:46.088Z,10.07
2024-05-09T03:18:13.716Z,10.21
2024-05-09T03:20:46.633Z,10.71
2024-05-09T03:23:13.815Z,10.17
2024-05-09T03:25:43.956Z,10.77
2024-05-09T03:28:15.795Z,11.39
2024-05-09T03:30:45.075Z,11.11
2024-05-09T03:33:13.980Z,9.89
2024-05-09T03:35:49.824Z,11.67
2024-05-09T03:38:20.812Z,10.83
2024-05-09T03:40:53.227Z,10.08
2024-05-09T03:43:26.330Z,10.89
2024-05-09T03:45:55.759Z,10.31
2024-05-09T03:48:26.078Z,11.42
2024-05-09T03:50:55.395Z,11.29
2024-05-09T03:53:25.421Z,10.97
2024-05-09T03:55:57.200Z,12.29
2024-05-09T03:58:24.287Z,10.82
2024-05-09T04:00:51.361Z,12.57
2024-05-09T04:03:21.758Z,13.01
2024-05-09T04:05:51.109Z,13.63
2024-05-09T04:08:18.476Z,14.66
2024-05-09T04:10:48.036Z,14.29
2024-05-09T04:13:15.068Z,14.43
2024-05-09T04:15:45.795Z,14.23
2024-05-09T04:18:12.998Z,16.39
2024-05-09T04:20:42.392Z,16.28
2024-05-09T04:23:13.810Z,14.80
2024-05-09T04:25:44.010Z,14.73
2024-05-09T04:28:16.518Z,14.70
2024-05-09T04:30:43.746Z,13.66
2024-05-09T04:33:13.191Z,13.27
2024-05-09T04:35:44.863Z,15.39
2024-05-09T04:38:15.722Z,15.89
2024-05-09T04:40:43.279Z,14.82
2024-05-09T04:43:19.395Z,0.00
2024-05-09T04:45:50.848Z,13.41
2024-05-09T04:48:18.001Z,15.63
2024-05-09T04:50:45.689Z,14.69
2024-05-09T04:53:15.955Z,15.37
2024-05-09T04:55:50.441Z,15.37
2024-05-09T04:58:20.300Z,15.09
2024-05-09T05:00:51.300Z,13.08
2024-05-09T05:03:21.487Z,12.68
2024-05-09T05:05:51.119Z,13.31
2024-05-09T05:08:21.243Z,13.83
2024-05-09T05:10:53.965Z,14.25
2024-05-09T05:13:25.595Z,13.17
2024-05-09T05:15:56.773Z,13.86
2024-05-09T05:18:28.606Z,13.63
2024-05-09T05:20:56.835Z,13.71
2024-05-09T05:23:24.433Z,15.02
2024-05-09T05:25:56.610Z,15.15
2024-05-09T05:28:25.924Z,14.52
2024-05-09T05:30:57.888Z,16.05
2024-05-09T05:33:27.265Z,14.89
2024-05-09T05:35:54.508Z,15.69
2024-05-09T05:38:24.780Z,16.37
2024-05-09T05:40:57.343Z,18.99
2024-05-09T05:43:24.632Z,19.38
2024-05-09T05:45:54.060Z,17.89
2024-05-09T05:48:21.288Z,18.31
2024-05-09T05:50:50.622Z,20.05
2024-05-09T05:53:21.190Z,18.53
2024-05-09T05:55:50.464Z,19.87
2024-05-09T05:58:17.633Z,21.79
2024-05-09T06:00:48.067Z,18.15
2024-05-09T06:03:18.069Z,22.42
2024-05-09T06:05:48.905Z,24.66
2024-05-09T06:08:16.125Z,21.03
2024-05-09T06:10:43.251Z,22.73
2024-05-09T06:13:11.226Z,25.67
2024-05-09T06:15:43.960Z,25.23
2024-05-09T06:18:12.526Z,25.02
2024-05-09T06:20:45.792Z,25.41
2024-05-09T06:23:15.952Z,23.25
2024-05-09T06:25:43.844Z,21.99
2024-05-09T06:28:13.862Z,23.65
2024-05-09T06:30:42.631Z,24.32
2024-05-09T06:33:15.232Z,21.83
2024-05-09T06:35:49.872Z,22.48
2024-05-09T06:38:17.620Z,23.10
2024-05-09T06:40:44.981Z,24.99
2024-05-09T06:43:19.193Z,24.21
2024-05-09T06:45:56.694Z,23.37
2024-05-09T06:48:29.241Z,25.15
2024-05-09T06:51:01.398Z,23.40
2024-05-09T06:53:33.819Z,23.81
2024-05-09T06:56:08.789Z,24.23
2024-05-09T06:58:35.794Z,22.51
2024-05-09T07:01:05.856Z,24.67
2024-05-09T07:03:33.140Z,22.79
2024-05-09T07:06:05.195Z,23.30
2024-05-09T07:08:35.574Z,22.13
2024-05-09T07:11:07.599Z,22.89
2024-05-09T07:13:45.050Z,25.49
2024-05-09T07:16:13.039Z,23.55
2024-05-09T07:18:40.334Z,21.37
2024-05-09T07:21:08.475Z,21.53
2024-05-09T07:23:35.618Z,22.16
2024-05-09T07:26:02.749Z,21.88
2024-05-09T07:28:29.752Z,22.83
2024-05-09T07:30:56.730Z,22.08
2024-05-09T07:33:24.658Z,23.59
2024-05-09T07:35:53.263Z,23.89
2024-05-09T07:38:20.435Z,22.62
2024-05-09T07:40:47.572Z,21.61
2024-05-09T07:43:15.634Z,19.97
2024-05-09T07:45:51.152Z,19.33
2024-05-09T07:53:39.467Z,21.49
2024-05-09T07:56:10.433Z,18.92
2024-05-09T07:58:38.973Z,20.21
2024-05-09T08:01:06.239Z,18.49
2024-05-09T08:03:34.372Z,19.48
2024-05-09T08:06:01.841Z,18.31
2024-05-09T08:08:28.836Z,15.47
2024-05-09T08:10:55.889Z,16.74
2024-05-09T08:13:23.263Z,18.37
2024-05-09T08:15:51.598Z,18.15
2024-05-09T08:18:19.352Z,16.22
2024-05-09T08:20:48.264Z,15.18
2024-05-09T08:23:15.241Z,16.15
2024-05-09T08:25:42.299Z,17.25
2024-05-09T08:28:10.724Z,15.53
2024-05-09T08:30:38.479Z,16.63
2024-05-09T08:33:06.770Z,15.91
2024-05-09T08:35:35.137Z,16.03
2024-05-09T08:38:03.003Z,17.09
2024-05-09T08:40:35.419Z,18.05
2024-05-09T08:43:07.271Z,16.05
2024-05-09T08:45:35.480Z,16.04
2024-05-09T08:48:07.606Z,18.21
2024-05-09T08:50:39.154Z,16.08
2024-05-09T08:53:07.769Z,17.27
2024-05-09T08:55:39.407Z,17.27
2024-05-09T08:58:12.514Z,16.89
2024-05-09T09:00:41.957Z,17.49
2024-05-09T09:03:11.720Z,15.83
2024-05-09T09:05:40.723Z,18.24
2024-05-09T09:08:08.797Z,15.95
2024-05-09T09:10:39.561Z,17.25
2024-05-09T09:13:09.550Z,14.31
2024-05-09T09:15:46.751Z,17.47
2024-05-09T09:18:14.913Z,14.77
2024-05-09T09:20:42.378Z,15.93
2024-05-09T09:23:11.523Z,13.82
2024-05-09T09:25:41.391Z,15.00
2024-05-09T09:28:09.444Z,16.23
2024-05-09T09:30:42.840Z,14.69
2024-05-09T09:33:10.452Z,15.25
2024-05-09T09:35:39.886Z,13.33
2024-05-09T09:38:07.657Z,13.79
2024-05-09T09:40:39.210Z,14.89
2024-05-09T09:43:14.271Z,12.21
2024-05-09T09:45:43.397Z,12.37
2024-05-09T09:48:12.138Z,14.19
2024-05-09T09:50:41.489Z,14.60
2024-05-09T09:53:09.909Z,15.31
2024-05-09T09:55:37.890Z,15.43
2024-05-09T09:58:09.527Z,12.85
2024-05-09T10:00:39.297Z,13.58
2024-05-09T10:03:06.706Z,14.29
2024-05-09T10:05:34.622Z,13.03
2024-05-09T10:08:06.490Z,12.18
2024-05-09T10:10:35.232Z,12.65
2024-05-09T10:13:06.516Z,10.29
2024-05-09T10:15:45.113Z,12.56
2024-05-09T10:18:12.593Z,13.44
2024-05-09T10:20:43.523Z,12.25
2024-05-09T10:23:26.747Z,11.58
2024-05-09T10:26:00.801Z,11.15
2024-05-09T10:28:28.714Z,11.32
2024-05-09T10:31:07.566Z,11.69
2024-05-09T10:33:37.834Z,10.71
2024-05-09T10:36:13.425Z,12.63
2024-05-09T10:38:41.485Z,10.61
2024-05-09T10:41:08.795Z,10.96
2024-05-09T10:43:38.830Z,10.81
2024-05-09T10:46:06.656Z,10.61
2024-05-09T10:48:34.236Z,10.53
2024-05-09T10:51:01.605Z,9.91
2024-05-09T10:53:28.605Z,12.59
2024-05-09T10:55:59.634Z,14.22
2024-05-09T10:58:27.624Z,13.40
2024-05-09T11:00:55.797Z,14.27
2024-05-09T11:03:23.896Z,12.92
2024-05-09T11:05:55.377Z,12.79
2024-05-09T11:08:23.439Z,11.82
2024-05-09T11:10:52.302Z,13.43
2024-05-09T11:13:28.498Z,14.77
2024-05-09T11:15:55.718Z,12.93
2024-05-09T11:18:25.584Z,11.91
2024-05-09T11:20:54.411Z,12.85
2024-05-09T11:23:22.222Z,11.88
2024-05-09T11:25:49.863Z,12.19
2024-05-09T11:28:20.254Z,12.01
2024-05-09T11:30:48.735Z,13.33
2024-05-09T11:33:17.495Z,10.51
2024-05-09T11:35:45.831Z,14.43
2024-05-09T11:38:13.052Z,14.06
2024-05-09T11:40:40.209Z,15.09
2024-05-09T11:43:07.343Z,13.89
2024-05-09T11:45:34.666Z,15.64
2024-05-09T11:48:01.895Z,15.53
2024-05-09T11:50:33.159Z,16.48
2024-05-09T11:53:02.930Z,13.99
2024-05-09T11:55:30.591Z,15.87
2024-05-09T11:57:57.670Z,15.13
2024-05-09T12:00:33.020Z,14.42
2024-05-09T12:03:04.934Z,14.15
2024-05-09T12:05:33.149Z,13.21
2024-05-09T12:08:00.901Z,15.08
2024-05-09T12:10:33.278Z,14.71
2024-05-09T12:13:04.730Z,15.17
2024-05-09T12:15:35.856Z,14.59
2024-05-09T12:18:04.251Z,16.27
2024-05-09T12:20:37.046Z,15.25
2024-05-09T12:23:08.289Z,15.46
2024-05-09T12:25:36.743Z,15.50
2024-05-09T12:28:03.985Z,16.19
2024-05-09T12:30:37.410Z,14.29
2024-05-09T12:33:11.829Z,15.31
2024-05-09T12:35:40.010Z,13.41
2024-05-09T12:38:07.037Z,15.41
2024-05-09T12:40:37.302Z,16.70
2024-05-09T12:43:08.478Z,17.83
2024-05-09T12:45:37.205Z,14.79
2024-05-09T12:48:07.431Z,14.57
2024-05-09T12:50:35.195Z,17.08
2024-05-09T12:53:03.734Z,15.68
2024-05-09T12:55:40.387Z,14.77
2024-05-09T12:58:18.478Z,14.25
2024-05-09T13:00:46.581Z,15.83
2024-05-09T13:03:14.811Z,15.91
2024-05-09T13:05:44.615Z,15.41
2024-05-09T13:08:12.811Z,15.84
2024-05-09T13:10:42.175Z,16.07
2024-05-09T13:13:12.019Z,15.45
2024-05-09T13:15:39.452Z,16.13
2024-05-09T13:18:07.201Z,15.31
2024-05-09T13:20:36.303Z,15.40
2024-05-09T13:23:05.740Z,16.75
2024-05-09T13:25:36.000Z,17.07
2024-05-09T13:28:03.934Z,18.93
2024-05-09T13:30:39.232Z,16.47
2024-05-09T13:33:09.650Z,15.93
2024-05-09T13:35:37.295Z,16.44
2024-05-09T13:38:05.075Z,17.16
2024-05-09T13:40:35.097Z,16.14
2024-05-09T13:43:04.335Z,16.24
2024-05-09T13:45:32.148Z,15.81
2024-05-09T13:47:59.488Z,15.85
2024-05-09T13:50:33.800Z,17.79
2024-05-09T13:53:04.582Z,16.65
2024-05-09T13:55:31.703Z,17.42
2024-05-09T13:57:58.941Z,15.56
2024-05-09T14:00:38.181Z,15.45
2024-05-09T14:03:12.293Z,16.49
2024-05-09T14:05:39.746Z,15.43
2024-05-09T14:08:07.130Z,15.55
2024-05-09T14:10:35.422Z,17.90
2024-05-09T14:13:02.566Z,16.69
2024-05-09T14:15:30.061Z,17.19
2024-05-09T14:17:57.335Z,17.78
2024-05-09T14:20:30.899Z,16.52
2024-05-09T14:23:00.832Z,16.98
2024-05-09T14:25:30.358Z,16.06
2024-05-09T14:27:57.671Z,17.06
2024-05-09T14:30:31.224Z,17.36
2024-05-09T14:33:04.147Z,18.18
2024-05-09T14:35:31.369Z,17.87
2024-05-09T14:37:58.685Z,17.49
2024-05-09T14:40:36.359Z,18.46
2024-05-09T14:43:08.760Z,16.22
2024-05-09T14:45:36.181Z,20.04
2024-05-09T14:48:04.084Z,17.61
2024-05-09T14:50:36.728Z,15.83
2024-05-09T14:53:07.430Z,16.79
2024-05-09T14:55:37.058Z,14.59
2024-05-09T14:58:07.029Z,15.63
2024-05-09T15:00:40.385Z,14.87
2024-05-09T15:03:10.350Z,15.23
2024-05-09T15:05:37.694Z,16.46
2024-05-09T15:08:07.814Z,14.19
2024-05-09T15:10:36.611Z,14.31
2024-05-09T15:13:05.027Z,14.57
2024-05-09T15:15:34.462Z,14.75
2024-05-09T15:18:01.890Z,12.10
2024-05-09T15:20:34.628Z,13.14
2024-05-09T15:23:04.839Z,18.77
2024-05-09T15:25:35.496Z,15.96
2024-05-09T15:28:03.599Z,16.16
2024-05-09T15:30:33.152Z,15.31
2024-05-09T15:33:05.519Z,15.42
2024-05-09T15:35:33.670Z,16.90
2024-05-09T15:38:03.054Z,16.22
2024-05-09T15:40:37.684Z,15.94
2024-05-09T15:43:08.688Z,14.97
2024-05-09T15:45:37.042Z,15.14
2024-05-09T15:48:05.347Z,11.79
2024-05-09T15:50:38.064Z,11.79
2024-05-09T15:53:09.098Z,11.80
2024-05-09T15:55:36.969Z,15.49
2024-05-09T15:58:04.889Z,17.09
2024-05-09T16:00:38.092Z,16.59
2024-05-09T16:03:09.221Z,17.61
2024-05-09T16:05:36.930Z,17.14
2024-05-09T16:08:04.806Z,15.64
2024-05-09T16:10:33.634Z,17.97
2024-05-09T16:13:02.654Z,18.50
2024-05-09T16:15:30.637Z,14.75
2024-05-09T16:17:57.928Z,18.38
2024-05-09T16:20:34.592Z,18.41
2024-05-09T16:23:07.278Z,18.99
2024-05-09T16:25:34.367Z,18.10
2024-05-09T16:28:01.632Z,17.47
2024-05-09T16:30:34.554Z,19.36
2024-05-09T16:33:04.285Z,18.82
2024-05-09T16:35:32.104Z,18.05
2024-05-09T16:38:01.382Z,16.89
2024-05-09T16:40:36.311Z,19.27
2024-05-09T16:43:07.674Z,18.47
2024-05-09T16:45:35.796Z,19.89
2024-05-09T16:48:03.134Z,19.64
2024-05-09T16:50:33.860Z,19.92
2024-05-09T16:53:02.805Z,17.97
2024-05-09T16:55:29.976Z,19.87
2024-05-09T16:57:58.065Z,21.61
2024-05-09T17:00:35.823Z,20.91
2024-05-09T17:03:09.440Z,25.44
2024-05-09T17:05:37.361Z,23.05
2024-05-09T17:08:05.042Z,19.53
2024-05-09T17:10:34.269Z,20.94
2024-05-09T17:13:04.275Z,22.17
2024-05-09T17:15:33.044Z,23.73
2024-05-09T17:18:01.243Z,26.70
2024-05-09T17:20:33.279Z,25.84
2024-05-09T17:23:04.423Z,24.49
2024-05-09T17:25:32.167Z,26.01
2024-05-09T17:28:05.880Z,26.76
2024-05-09T17:30:36.775Z,22.97
2024-05-09T17:33:07.235Z,25.70
2024-05-09T17:35:34.923Z,23.33
2024-05-09T17:38:02.028Z,23.87
2024-05-09T17:40:33.736Z,25.89
2024-05-09T17:43:05.000Z,25.44
2024-05-09T17:45:33.079Z,25.49
2024-05-09T17:48:00.786Z,27.15
2024-05-09T17:50:34.758Z,25.25
2024-05-09T17:53:04.332Z,27.21
2024-05-09T17:55:31.547Z,27.46
2024-05-09T17:57:58.772Z,28.01
2024-05-09T18:00:36.407Z,27.44
2024-05-09T18:03:08.039Z,27.29
2024-05-09T18:05:36.965Z,27.76
2024-05-09T18:08:05.361Z,31.01
2024-05-09T18:10:36.873Z,29.98
2024-05-09T18:13:09.732Z,28.26
2024-05-09T18:15:37.393Z,29.29
2024-05-09T18:18:05.450Z,27.53
2024-05-09T18:20:41.420Z,31.29
2024-05-09T18:23:13.244Z,30.37
2024-05-09T18:25:40.881Z,33.43
2024-05-09T18:28:08.079Z,30.21
2024-05-09T18:30:36.819Z,31.99
2024-05-09T18:33:05.870Z,28.80
2024-05-09T18:35:34.311Z,30.42
2024-05-09T18:38:01.317Z,31.06
2024-05-09T18:40:34.130Z,32.48
2024-05-09T18:43:05.836Z,30.95
2024-05-09T18:45:34.488Z,33.89
2024-05-09T18:48:01.745Z,30.95
2024-05-09T18:50:35.342Z,31.14
2024-05-09T18:53:06.005Z,31.11
2024-05-09T18:55:33.191Z,30.59
2024-05-09T18:58:00.813Z,32.18
2024-05-09T19:00:34.510Z,32.21
2024-05-09T19:03:09.110Z,30.25
2024-05-09T19:05:39.427Z,32.64
2024-05-09T19:08:07.431Z,32.03
2024-05-09T19:10:36.001Z,32.10
2024-05-09T19:13:08.245Z,31.65
2024-05-09T19:15:39.251Z,31.51
2024-05-09T19:18:07.258Z,32.32
2024-05-09T19:20:36.330Z,31.51
2024-05-09T19:23:06.430Z,32.13
2024-05-09T19:25:34.423Z,29.09
2024-05-09T19:28:01.771Z,29.03
2024-05-09T19:30:37.615Z,31.61
2024-05-09T19:33:08.903Z,34.35
2024-05-09T19:35:36.367Z,28.11
2024-05-09T19:38:03.766Z,26.86
2024-05-09T19:40:33.060Z,30.35
2024-05-09T19:43:03.094Z,31.88
2024-05-09T19:45:32.143Z,34.18
2024-05-09T19:47:59.400Z,30.70
2024-05-09T19:50:32.902Z,32.15
2024-05-09T19:53:08.173Z,28.60
2024-05-09T19:55:36.373Z,24.74
2024-05-09T19:58:05.554Z,26.41
2024-05-09T20:00:36.364Z,28.93
2024-05-09T20:03:05.658Z,30.62
2024-05-09T20:05:33.457Z,26.87
2024-05-09T20:08:00.619Z,26.69
2024-05-09T20:10:32.402Z,26.67
2024-05-09T20:13:01.772Z,27.89
2024-05-09T20:15:29.078Z,27.74
2024-05-09T20:17:56.455Z,30.97
2024-05-09T20:20:32.682Z,28.77
2024-05-09T20:23:05.979Z,31.15
2024-05-09T20:25:33.081Z,25.53
2024-05-09T20:28:00.300Z,28.40
2024-05-09T20:30:32.159Z,33.61
2024-05-09T20:33:03.605Z,34.19
2024-05-09T20:35:32.613Z,33.70
2024-05-09T20:38:00.888Z,34.89
2024-05-09T20:40:32.830Z,36.35
2024-05-09T20:43:03.514Z,36.23
2024-05-09T20:45:30.564Z,35.85
2024-05-09T20:47:57.974Z,36.21
2024-05-09T20:50:35.638Z,36.07
2024-05-09T20:53:08.614Z,33.27
2024-05-09T20:55:35.943Z,34.57
2024-05-09T20:58:03.158Z,34.08
2024-05-09T21:00:38.823Z,36.58
2024-05-09T21:03:10.370Z,35.13
2024-05-09T21:05:38.018Z,33.43
2024-05-09T21:08:05.264Z,34.77
2024-05-09T21:10:33.855Z,33.79
2024-05-09T21:13:03.093Z,35.61
2024-05-09T21:15:30.948Z,33.49
2024-05-09T21:17:58.500Z,32.39
2024-05-09T21:20:31.126Z,35.16
2024-05-09T21:22:59.960Z,33.93
2024-05-09T21:25:27.200Z,34.07
2024-05-09T21:27:54.524Z,36.11
2024-05-09T21:30:31.944Z,35.65
2024-05-09T21:33:07.875Z,31.98
2024-05-09T21:35:35.215Z,34.63
2024-05-09T21:38:02.196Z,34.08
2024-05-09T21:40:36.447Z,31.89
2024-05-09T21:43:07.905Z,28.20
2024-05-09T21:45:35.704Z,32.45
2024-05-09T21:48:04.101Z,33.91
2024-05-09T21:50:37.198Z,35.27
2024-05-09T21:53:07.837Z,33.80
2024-05-09T21:55:35.074Z,34.53
2024-05-09T21:58:02.763Z,28.43
2024-05-09T22:00:36.964Z,28.97
2024-05-09T22:03:07.559Z,32.34
2024-05-09T22:05:36.517Z,30.84
2024-05-09T22:08:03.700Z,32.26
2024-05-09T22:10:34.786Z,30.18
2024-05-09T22:13:04.457Z,26.67
2024-05-09T22:15:35.256Z,26.67
2024-05-09T22:18:02.554Z,26.01
2024-05-09T22:20:36.556Z,28.31
2024-05-09T22:23:05.933Z,29.77
2024-05-09T22:25:33.513Z,23.79
2024-05-09T22:28:01.303Z,27.60
2024-05-09T22:30:35.774Z,26.61
2024-05-09T22:33:10.341Z,23.45
2024-05-09T22:35:39.464Z,25.40
2024-05-09T22:38:06.709Z,22.37
2024-05-09T22:40:43.337Z,25.86
2024-05-09T22:43:19.537Z,24.06
2024-05-09T22:45:47.742Z,27.45
2024-05-09T22:48:15.069Z,24.99
2024-05-09T22:50:42.278Z,24.19
2024-05-09T22:53:09.301Z,25.36
2024-05-09T22:55:36.365Z,25.32
2024-05-09T22:58:03.496Z,25.12
2024-05-09T23:00:32.395Z,20.97
2024-05-09T23:03:00.615Z,26.01
2024-05-09T23:05:28.179Z,24.35
2024-05-09T23:07:55.318Z,28.67
2024-05-09T23:10:30.847Z,25.95
2024-05-09T23:13:02.627Z,26.00
2024-05-09T23:15:30.099Z,26.07
2024-05-09T23:17:58.109Z,27.59
2024-05-09T23:20:35.560Z,27.43
2024-05-09T23:23:06.507Z,27.63
2024-05-09T23:25:36.744Z,28.39
2024-05-09T23:28:04.418Z,28.37
2024-05-09T23:30:37.596Z,29.41
2024-05-09T23:33:08.242Z,29.40
2024-05-09T23:35:36.786Z,29.41
2024-05-09T23:38:04.005Z,31.93
2024-05-09T23:40:38.400Z,28.97
2024-05-09T23:43:09.053Z,29.06
2024-05-09T23:45:36.616Z,29.37
2024-05-09T23:48:04.042Z,29.85
2024-05-09T23:50:35.834Z,31.59
2024-05-09T23:53:06.704Z,34.19
2024-05-09T23:55:34.957Z,32.01
2024-05-09T23:58:02.053Z,32.45
